sensor_id;sensor_type;location;lat;lon;timestamp;P1;durP1;ratioP1;P2;durP2;ratioP2
12950;SDS011;6540;50.858;7.232;2023-03-01T00:01:38;3.83;;;3.27;;
12950;SDS011;6540;50.858;7.232;2023-03-01T00:04:04;5.67;;;3.83;;
12950;SDS011;6540;50.858;7.232;2023-03-01T00:06:29;5.57;;;4.63;;
12950;SDS011;6540;50.858;7.232;2023-03-01T00:08:55;5.13;;;3.63;;
12950;SDS011;6540;50.858;7.232;2023-03-01T00:13:46;3.97;;;3.43;;
12950;SDS011;6540;50.858;7.232;2023-03-01T00:16:14;5.67;;;3.43;;
12950;SDS011;6540;50.858;7.232;2023-03-01T00:18:41;8.37;;;4.03;;
12950;SDS011;6540;50.858;7.232;2023-03-01T00:21:07;4.83;;;4.07;;
12950;SDS011;6540;50.858;7.232;2023-03-01T00:23:35;6.00;;;3.57;;
12950;SDS011;6540;50.858;7.232;2023-03-01T00:26:02;3.90;;;3.47;;
12950;SDS011;6540;50.858;7.232;2023-03-01T00:28:31;4.87;;;3.30;;
12950;SDS011;6540;50.858;7.232;2023-03-01T00:31:01;6.57;;;3.57;;
12950;SDS011;6540;50.858;7.232;2023-03-01T00:33:28;5.63;;;3.83;;
12950;SDS011;6540;50.858;7.232;2023-03-01T00:35:53;6.07;;;4.20;;
12950;SDS011;6540;50.858;7.232;2023-03-01T00:38:19;4.23;;;3.63;;
12950;SDS011;6540;50.858;7.232;2023-03-01T00:40:44;6.93;;;3.90;;
12950;SDS011;6540;50.858;7.232;2023-03-01T00:43:09;4.10;;;3.17;;
12950;SDS011;6540;50.858;7.232;2023-03-01T00:45:35;6.93;;;3.63;;
12950;SDS011;6540;50.858;7.232;2023-03-01T00:48:00;4.40;;;3.30;;
12950;SDS011;6540;50.858;7.232;2023-03-01T00:50:25;7.47;;;4.23;;
12950;SDS011;6540;50.858;7.232;2023-03-01T00:52:55;6.67;;;4.07;;
12950;SDS011;6540;50.858;7.232;2023-03-01T00:55:21;4.50;;;3.20;;
12950;SDS011;6540;50.858;7.232;2023-03-01T00:57:46;6.40;;;3.73;;
12950;SDS011;6540;50.858;7.232;2023-03-01T01:00:12;6.20;;;3.53;;
12950;SDS011;6540;50.858;7.232;2023-03-01T01:02:37;4.50;;;2.53;;
12950;SDS011;6540;50.858;7.232;2023-03-01T01:05:03;4.73;;;3.30;;
12950;SDS011;6540;50.858;7.232;2023-03-01T01:07:29;8.33;;;4.20;;
12950;SDS011;6540;50.858;7.232;2023-03-01T01:09:54;6.10;;;3.07;;
12950;SDS011;6540;50.858;7.232;2023-03-01T01:12:20;4.03;;;3.33;;
12950;SDS011;6540;50.858;7.232;2023-03-01T01:14:45;2.53;;;2.23;;
12950;SDS011;6540;50.858;7.232;2023-03-01T01:17:11;6.53;;;3.77;;
12950;SDS011;6540;50.858;7.232;2023-03-01T01:19:36;5.20;;;3.57;;
12950;SDS011;6540;50.858;7.232;2023-03-01T01:22:02;7.93;;;4.33;;
12950;SDS011;6540;50.858;7.232;2023-03-01T01:24:28;7.23;;;4.63;;
12950;SDS011;6540;50.858;7.232;2023-03-01T01:26:53;6.53;;;5.10;;
12950;SDS011;6540;50.858;7.232;2023-03-01T01:29:19;7.77;;;4.17;;
12950;SDS011;6540;50.858;7.232;2023-03-01T01:31:44;5.73;;;3.17;;
12950;SDS011;6540;50.858;7.232;2023-03-01T01:34:14;7.10;;;3.40;;
12950;SDS011;6540;50.858;7.232;2023-03-01T01:36:41;3.90;;;3.33;;
12950;SDS011;6540;50.858;7.232;2023-03-01T01:39:07;6.53;;;4.57;;
12950;SDS011;6540;50.858;7.232;2023-03-01T01:41:36;5.23;;;4.57;;
12950;SDS011;6540;50.858;7.232;2023-03-01T01:44:15;5.10;;;4.17;;
12950;SDS011;6540;50.858;7.232;2023-03-01T01:49:32;8.70;;;4.50;;
12950;SDS011;6540;50.858;7.232;2023-03-01T01:52:04;5.97;;;3.43;;
12950;SDS011;6540;50.858;7.232;2023-03-01T01:54:38;3.87;;;3.30;;
12950;SDS011;6540;50.858;7.232;2023-03-01T01:57:07;8.03;;;3.77;;
12950;SDS011;6540;50.858;7.232;2023-03-01T01:59:36;5.27;;;3.87;;
12950;SDS011;6540;50.858;7.232;2023-03-01T02:02:03;10.17;;;4.60;;
12950;SDS011;6540;50.858;7.232;2023-03-01T02:04:30;3.37;;;2.53;;
12950;SDS011;6540;50.858;7.232;2023-03-01T02:07:03;6.47;;;3.30;;
12950;SDS011;6540;50.858;7.232;2023-03-01T02:09:34;4.07;;;2.57;;
12950;SDS011;6540;50.858;7.232;2023-03-01T02:12:01;7.10;;;3.50;;
12950;SDS011;6540;50.858;7.232;2023-03-01T02:14:27;7.77;;;2.97;;
12950;SDS011;6540;50.858;7.232;2023-03-01T02:16:52;3.87;;;2.93;;
12950;SDS011;6540;50.858;7.232;2023-03-01T02:22:23;3.60;;;3.07;;
12950;SDS011;6540;50.858;7.232;2023-03-01T02:27:47;4.23;;;3.53;;
12950;SDS011;6540;50.858;7.232;2023-03-01T02:30:20;5.00;;;3.20;;
12950;SDS011;6540;50.858;7.232;2023-03-01T02:32:47;3.47;;;3.17;;
12950;SDS011;6540;50.858;7.232;2023-03-01T02:35:14;4.03;;;3.20;;
12950;SDS011;6540;50.858;7.232;2023-03-01T02:37:41;4.80;;;3.37;;
12950;SDS011;6540;50.858;7.232;2023-03-01T02:40:11;5.53;;;4.60;;
12950;SDS011;6540;50.858;7.232;2023-03-01T02:42:54;6.83;;;3.37;;
12950;SDS011;6540;50.858;7.232;2023-03-01T02:45:22;3.77;;;3.10;;
12950;SDS011;6540;50.858;7.232;2023-03-01T02:47:48;5.03;;;3.40;;
12950;SDS011;6540;50.858;7.232;2023-03-01T02:53:13;0.97;;;0.97;;
12950;SDS011;6540;50.858;7.232;2023-03-01T02:55:47;7.33;;;2.60;;
12950;SDS011;6540;50.858;7.232;2023-03-01T02:58:13;4.37;;;3.63;;
12950;SDS011;6540;50.858;7.232;2023-03-01T03:00:40;3.97;;;3.57;;
12950;SDS011;6540;50.858;7.232;2023-03-01T03:03:10;7.47;;;4.83;;
12950;SDS011;6540;50.858;7.232;2023-03-01T03:05:38;4.80;;;2.17;;
12950;SDS011;6540;50.858;7.232;2023-03-01T03:08:04;2.53;;;2.33;;
12950;SDS011;6540;50.858;7.232;2023-03-01T03:10:32;1.70;;;1.57;;
12950;SDS011;6540;50.858;7.232;2023-03-01T03:13:02;1.97;;;1.87;;
12950;SDS011;6540;50.858;7.232;2023-03-01T03:15:29;4.90;;;3.77;;
12950;SDS011;6540;50.858;7.232;2023-03-01T03:17:56;8.30;;;3.60;;
12950;SDS011;6540;50.858;7.232;2023-03-01T03:20:24;6.23;;;4.30;;
12950;SDS011;6540;50.858;7.232;2023-03-01T03:22:52;5.63;;;3.67;;
12950;SDS011;6540;50.858;7.232;2023-03-01T03:25:19;6.93;;;3.70;;
12950;SDS011;6540;50.858;7.232;2023-03-01T03:27:46;4.27;;;3.87;;
12950;SDS011;6540;50.858;7.232;2023-03-01T03:30:14;4.20;;;2.27;;
12950;SDS011;6540;50.858;7.232;2023-03-01T03:32:42;5.37;;;3.30;;
12950;SDS011;6540;50.858;7.232;2023-03-01T03:35:17;4.60;;;3.77;;
12950;SDS011;6540;50.858;7.232;2023-03-01T03:37:44;4.70;;;3.83;;
12950;SDS011;6540;50.858;7.232;2023-03-01T03:40:37;3.80;;;3.00;;
12950;SDS011;6540;50.858;7.232;2023-03-01T03:43:05;4.43;;;3.60;;
12950;SDS011;6540;50.858;7.232;2023-03-01T03:45:35;3.23;;;2.97;;
12950;SDS011;6540;50.858;7.232;2023-03-01T03:48:02;3.47;;;2.60;;
12950;SDS011;6540;50.858;7.232;2023-03-01T03:50:29;8.13;;;5.03;;
12950;SDS011;6540;50.858;7.232;2023-03-01T03:52:55;7.17;;;3.43;;
12950;SDS011;6540;50.858;7.232;2023-03-01T03:55:20;5.70;;;4.10;;
12950;SDS011;6540;50.858;7.232;2023-03-01T03:57:46;4.37;;;3.53;;
12950;SDS011;6540;50.858;7.232;2023-03-01T04:00:19;5.10;;;3.80;;
12950;SDS011;6540;50.858;7.232;2023-03-01T04:02:49;3.83;;;3.40;;
12950;SDS011;6540;50.858;7.232;2023-03-01T04:05:16;5.03;;;3.20;;
12950;SDS011;6540;50.858;7.232;2023-03-01T04:07:42;4.07;;;3.17;;
12950;SDS011;6540;50.858;7.232;2023-03-01T04:10:09;7.13;;;4.80;;
12950;SDS011;6540;50.858;7.232;2023-03-01T04:12:37;3.87;;;3.43;;
12950;SDS011;6540;50.858;7.232;2023-03-01T04:15:03;3.50;;;3.20;;
12950;SDS011;6540;50.858;7.232;2023-03-01T04:17:38;6.33;;;4.90;;
12950;SDS011;6540;50.858;7.232;2023-03-01T04:20:07;9.40;;;4.80;;
12950;SDS011;6540;50.858;7.232;2023-03-01T04:22:36;4.97;;;3.60;;
12950;SDS011;6540;50.858;7.232;2023-03-01T04:25:02;3.67;;;3.07;;
12950;SDS011;6540;50.858;7.232;2023-03-01T04:27:27;6.20;;;4.17;;
12950;SDS011;6540;50.858;7.232;2023-03-01T04:29:53;5.87;;;4.67;;
12950;SDS011;6540;50.858;7.232;2023-03-01T04:32:18;6.37;;;4.77;;
12950;SDS011;6540;50.858;7.232;2023-03-01T04:34:43;8.40;;;5.07;;
12950;SDS011;6540;50.858;7.232;2023-03-01T04:37:09;5.47;;;3.57;;
12950;SDS011;6540;50.858;7.232;2023-03-01T04:39:34;5.77;;;3.60;;
12950;SDS011;6540;50.858;7.232;2023-03-01T04:42:14;7.53;;;5.00;;
12950;SDS011;6540;50.858;7.232;2023-03-01T04:44:39;6.30;;;4.17;;
12950;SDS011;6540;50.858;7.232;2023-03-01T04:47:05;6.43;;;4.33;;
12950;SDS011;6540;50.858;7.232;2023-03-01T04:49:30;5.47;;;4.50;;
12950;SDS011;6540;50.858;7.232;2023-03-01T04:51:56;6.37;;;4.63;;
12950;SDS011;6540;50.858;7.232;2023-03-01T04:54:32;4.97;;;4.23;;
12950;SDS011;6540;50.858;7.232;2023-03-01T04:56:59;4.47;;;3.43;;
12950;SDS011;6540;50.858;7.232;2023-03-01T04:59:25;4.97;;;4.27;;
12950;SDS011;6540;50.858;7.232;2023-03-01T05:01:51;4.83;;;3.60;;
12950;SDS011;6540;50.858;7.232;2023-03-01T05:04:17;3.07;;;2.77;;
12950;SDS011;6540;50.858;7.232;2023-03-01T05:06:43;8.37;;;4.50;;
12950;SDS011;6540;50.858;7.232;2023-03-01T05:09:09;7.03;;;3.93;;
12950;SDS011;6540;50.858;7.232;2023-03-01T05:11:36;5.93;;;3.90;;
12950;SDS011;6540;50.858;7.232;2023-03-01T05:14:02;4.43;;;3.40;;
12950;SDS011;6540;50.858;7.232;2023-03-01T05:16:28;3.23;;;2.77;;
12950;SDS011;6540;50.858;7.232;2023-03-01T05:18:55;5.40;;;3.40;;
12950;SDS011;6540;50.858;7.232;2023-03-01T05:21:21;6.33;;;3.20;;
12950;SDS011;6540;50.858;7.232;2023-03-01T05:23:47;4.87;;;4.33;;
12950;SDS011;6540;50.858;7.232;2023-03-01T05:26:13;6.13;;;4.00;;
12950;SDS011;6540;50.858;7.232;2023-03-01T05:28:38;7.73;;;3.80;;
12950;SDS011;6540;50.858;7.232;2023-03-01T05:31:05;6.20;;;3.97;;
12950;SDS011;6540;50.858;7.232;2023-03-01T05:33:35;7.73;;;4.03;;
12950;SDS011;6540;50.858;7.232;2023-03-01T05:36:01;6.27;;;3.60;;
12950;SDS011;6540;50.858;7.232;2023-03-01T05:38:27;4.57;;;3.90;;
12950;SDS011;6540;50.858;7.232;2023-03-01T05:40:52;6.00;;;4.37;;
12950;SDS011;6540;50.858;7.232;2023-03-01T05:43:18;6.37;;;4.63;;
12950;SDS011;6540;50.858;7.232;2023-03-01T05:45:44;10.33;;;4.83;;
12950;SDS011;6540;50.858;7.232;2023-03-01T05:48:09;6.63;;;4.23;;
12950;SDS011;6540;50.858;7.232;2023-03-01T05:50:37;7.50;;;4.83;;
12950;SDS011;6540;50.858;7.232;2023-03-01T05:53:06;5.73;;;4.83;;
12950;SDS011;6540;50.858;7.232;2023-03-01T05:55:35;5.53;;;3.80;;
12950;SDS011;6540;50.858;7.232;2023-03-01T05:58:02;5.90;;;4.40;;
12950;SDS011;6540;50.858;7.232;2023-03-01T06:00:29;9.03;;;4.93;;
12950;SDS011;6540;50.858;7.232;2023-03-01T06:02:56;5.93;;;4.30;;
12950;SDS011;6540;50.858;7.232;2023-03-01T06:05:22;7.27;;;5.23;;
12950;SDS011;6540;50.858;7.232;2023-03-01T06:07:48;5.27;;;3.70;;
12950;SDS011;6540;50.858;7.232;2023-03-01T06:10:15;8.00;;;5.07;;
12950;SDS011;6540;50.858;7.232;2023-03-01T06:12:41;8.37;;;4.80;;
12950;SDS011;6540;50.858;7.232;2023-03-01T06:15:09;8.23;;;5.17;;
12950;SDS011;6540;50.858;7.232;2023-03-01T06:17:37;9.53;;;5.33;;
12950;SDS011;6540;50.858;7.232;2023-03-01T06:20:05;7.03;;;4.43;;
12950;SDS011;6540;50.858;7.232;2023-03-01T06:22:33;4.80;;;3.80;;
12950;SDS011;6540;50.858;7.232;2023-03-01T06:24:58;5.57;;;4.33;;
12950;SDS011;6540;50.858;7.232;2023-03-01T06:27:24;5.03;;;3.83;;
12950;SDS011;6540;50.858;7.232;2023-03-01T06:29:49;9.73;;;4.40;;
12950;SDS011;6540;50.858;7.232;2023-03-01T06:32:14;6.60;;;4.67;;
12950;SDS011;6540;50.858;7.232;2023-03-01T06:34:40;5.37;;;4.53;;
12950;SDS011;6540;50.858;7.232;2023-03-01T06:37:05;4.93;;;3.67;;
12950;SDS011;6540;50.858;7.232;2023-03-01T06:39:31;3.93;;;3.40;;
12950;SDS011;6540;50.858;7.232;2023-03-01T06:41:57;3.57;;;3.03;;
12950;SDS011;6540;50.858;7.232;2023-03-01T06:44:23;2.73;;;2.50;;
12950;SDS011;6540;50.858;7.232;2023-03-01T06:46:48;4.73;;;4.30;;
12950;SDS011;6540;50.858;7.232;2023-03-01T06:49:14;4.00;;;2.77;;
12950;SDS011;6540;50.858;7.232;2023-03-01T06:51:41;3.00;;;2.73;;
12950;SDS011;6540;50.858;7.232;2023-03-01T06:54:06;3.03;;;2.73;;
12950;SDS011;6540;50.858;7.232;2023-03-01T06:56:32;4.57;;;2.77;;
12950;SDS011;6540;50.858;7.232;2023-03-01T06:58:58;3.63;;;2.13;;
12950;SDS011;6540;50.858;7.232;2023-03-01T07:01:23;3.60;;;2.70;;
12950;SDS011;6540;50.858;7.232;2023-03-01T07:03:48;2.10;;;1.90;;
12950;SDS011;6540;50.858;7.232;2023-03-01T07:06:14;1.77;;;1.67;;
12950;SDS011;6540;50.858;7.232;2023-03-01T07:08:39;5.70;;;2.80;;
12950;SDS011;6540;50.858;7.232;2023-03-01T07:11:04;3.50;;;3.20;;
12950;SDS011;6540;50.858;7.232;2023-03-01T07:13:30;5.97;;;3.33;;
12950;SDS011;6540;50.858;7.232;2023-03-01T07:15:56;6.20;;;4.30;;
12950;SDS011;6540;50.858;7.232;2023-03-01T07:18:21;2.97;;;2.73;;
12950;SDS011;6540;50.858;7.232;2023-03-01T07:20:47;7.40;;;5.13;;
12950;SDS011;6540;50.858;7.232;2023-03-01T07:23:12;11.30;;;7.53;;
12950;SDS011;6540;50.858;7.232;2023-03-01T07:25:38;8.27;;;6.40;;
12950;SDS011;6540;50.858;7.232;2023-03-01T07:28:03;5.60;;;4.17;;
12950;SDS011;6540;50.858;7.232;2023-03-01T07:30:29;8.83;;;5.60;;
12950;SDS011;6540;50.858;7.232;2023-03-01T07:32:55;4.43;;;3.20;;
12950;SDS011;6540;50.858;7.232;2023-03-01T07:35:22;4.87;;;4.40;;
12950;SDS011;6540;50.858;7.232;2023-03-01T07:37:48;5.67;;;3.47;;
12950;SDS011;6540;50.858;7.232;2023-03-01T07:40:13;1.13;;;1.13;;
12950;SDS011;6540;50.858;7.232;2023-03-01T07:42:39;8.43;;;4.80;;
12950;SDS011;6540;50.858;7.232;2023-03-01T07:45:04;4.70;;;4.20;;
12950;SDS011;6540;50.858;7.232;2023-03-01T07:47:31;10.43;;;5.50;;
12950;SDS011;6540;50.858;7.232;2023-03-01T07:49:56;3.70;;;2.00;;
12950;SDS011;6540;50.858;7.232;2023-03-01T07:52:22;3.60;;;2.97;;
12950;SDS011;6540;50.858;7.232;2023-03-01T07:54:47;7.97;;;4.37;;
12950;SDS011;6540;50.858;7.232;2023-03-01T07:57:12;9.13;;;5.30;;
12950;SDS011;6540;50.858;7.232;2023-03-01T07:59:38;12.70;;;7.37;;
12950;SDS011;6540;50.858;7.232;2023-03-01T08:02:03;9.37;;;4.67;;
12950;SDS011;6540;50.858;7.232;2023-03-01T08:04:28;6.87;;;4.93;;
12950;SDS011;6540;50.858;7.232;2023-03-01T08:06:54;9.20;;;5.67;;
12950;SDS011;6540;50.858;7.232;2023-03-01T08:09:20;11.13;;;6.97;;
12950;SDS011;6540;50.858;7.232;2023-03-01T08:11:46;4.20;;;3.80;;
12950;SDS011;6540;50.858;7.232;2023-03-01T08:14:11;5.13;;;4.37;;
12950;SDS011;6540;50.858;7.232;2023-03-01T08:16:37;9.87;;;6.33;;
12950;SDS011;6540;50.858;7.232;2023-03-01T08:19:06;10.40;;;6.00;;
12950;SDS011;6540;50.858;7.232;2023-03-01T08:21:36;12.07;;;7.80;;
12950;SDS011;6540;50.858;7.232;2023-03-01T08:24:03;11.70;;;6.97;;
12950;SDS011;6540;50.858;7.232;2023-03-01T08:26:30;8.33;;;5.90;;
12950;SDS011;6540;50.858;7.232;2023-03-01T08:28:56;7.93;;;6.13;;
12950;SDS011;6540;50.858;7.232;2023-03-01T08:31:23;11.77;;;7.23;;
12950;SDS011;6540;50.858;7.232;2023-03-01T08:33:51;9.83;;;6.97;;
12950;SDS011;6540;50.858;7.232;2023-03-01T08:36:22;11.50;;;6.67;;
12950;SDS011;6540;50.858;7.232;2023-03-01T08:38:49;9.97;;;7.17;;
12950;SDS011;6540;50.858;7.232;2023-03-01T08:41:14;11.20;;;6.53;;
12950;SDS011;6540;50.858;7.232;2023-03-01T08:43:40;11.23;;;7.57;;
12950;SDS011;6540;50.858;7.232;2023-03-01T08:46:05;11.50;;;6.93;;
12950;SDS011;6540;50.858;7.232;2023-03-01T08:48:31;10.57;;;5.87;;
12950;SDS011;6540;50.858;7.232;2023-03-01T08:50:56;9.23;;;6.20;;
12950;SDS011;6540;50.858;7.232;2023-03-01T08:53:22;12.77;;;6.03;;
12950;SDS011;6540;50.858;7.232;2023-03-01T08:55:47;8.07;;;6.30;;
12950;SDS011;6540;50.858;7.232;2023-03-01T08:58:12;12.07;;;7.00;;
12950;SDS011;6540;50.858;7.232;2023-03-01T09:00:38;12.33;;;5.73;;
12950;SDS011;6540;50.858;7.232;2023-03-01T09:03:05;13.03;;;7.80;;
12950;SDS011;6540;50.858;7.232;2023-03-01T09:05:33;16.30;;;6.33;;
12950;SDS011;6540;50.858;7.232;2023-03-01T09:07:59;12.27;;;7.50;;
12950;SDS011;6540;50.858;7.232;2023-03-01T09:10:24;9.33;;;6.53;;
12950;SDS011;6540;50.858;7.232;2023-03-01T09:12:50;7.80;;;5.67;;
12950;SDS011;6540;50.858;7.232;2023-03-01T09:15:16;12.37;;;6.43;;
12950;SDS011;6540;50.858;7.232;2023-03-01T09:17:41;9.50;;;5.53;;
12950;SDS011;6540;50.858;7.232;2023-03-01T09:20:07;9.60;;;6.70;;
12950;SDS011;6540;50.858;7.232;2023-03-01T09:22:33;12.23;;;7.13;;
12950;SDS011;6540;50.858;7.232;2023-03-01T09:24:59;11.37;;;6.00;;
12950;SDS011;6540;50.858;7.232;2023-03-01T09:27:25;12.40;;;6.80;;
12950;SDS011;6540;50.858;7.232;2023-03-01T09:29:51;4.47;;;3.77;;
12950;SDS011;6540;50.858;7.232;2023-03-01T09:32:16;9.60;;;6.17;;
12950;SDS011;6540;50.858;7.232;2023-03-01T09:34:41;8.07;;;5.27;;
12950;SDS011;6540;50.858;7.232;2023-03-01T09:37:26;11.43;;;5.87;;
12950;SDS011;6540;50.858;7.232;2023-03-01T09:39:51;9.60;;;6.97;;
12950;SDS011;6540;50.858;7.232;2023-03-01T09:42:17;11.27;;;6.13;;
12950;SDS011;6540;50.858;7.232;2023-03-01T09:44:44;9.73;;;6.67;;
12950;SDS011;6540;50.858;7.232;2023-03-01T09:47:22;10.83;;;6.50;;
12950;SDS011;6540;50.858;7.232;2023-03-01T09:52:28;10.07;;;5.73;;
12950;SDS011;6540;50.858;7.232;2023-03-01T09:54:55;6.33;;;4.83;;
12950;SDS011;6540;50.858;7.232;2023-03-01T10:05:50;11.60;;;5.67;;
12950;SDS011;6540;50.858;7.232;2023-03-01T10:11:14;9.93;;;6.60;;
12950;SDS011;6540;50.858;7.232;2023-03-01T10:16:51;8.00;;;5.07;;
12950;SDS011;6540;50.858;7.232;2023-03-01T10:19:39;4.57;;;3.67;;
12950;SDS011;6540;50.858;7.232;2023-03-01T10:24:40;10.43;;;6.53;;
12950;SDS011;6540;50.858;7.232;2023-03-01T10:27:11;11.80;;;5.90;;
12950;SDS011;6540;50.858;7.232;2023-03-01T10:29:46;9.57;;;6.47;;
12950;SDS011;6540;50.858;7.232;2023-03-01T10:32:31;11.27;;;4.97;;
12950;SDS011;6540;50.858;7.232;2023-03-01T10:34:57;9.83;;;6.43;;
12950;SDS011;6540;50.858;7.232;2023-03-01T10:37:23;7.93;;;6.10;;
12950;SDS011;6540;50.858;7.232;2023-03-01T10:42:34;9.23;;;6.50;;
12950;SDS011;6540;50.858;7.232;2023-03-01T10:50:48;9.40;;;5.53;;
12950;SDS011;6540;50.858;7.232;2023-03-01T10:53:26;15.13;;;7.30;;
12950;SDS011;6540;50.858;7.232;2023-03-01T10:58:25;16.03;;;8.27;;
12950;SDS011;6540;50.858;7.232;2023-03-01T11:00:56;7.73;;;6.00;;
12950;SDS011;6540;50.858;7.232;2023-03-01T11:03:26;5.07;;;4.37;;
12950;SDS011;6540;50.858;7.232;2023-03-01T11:08:51;8.03;;;5.83;;
12950;SDS011;6540;50.858;7.232;2023-03-01T11:11:23;6.07;;;4.90;;
12950;SDS011;6540;50.858;7.232;2023-03-01T11:16:25;10.03;;;5.50;;
12950;SDS011;6540;50.858;7.232;2023-03-01T11:18:57;7.03;;;5.37;;
12950;SDS011;6540;50.858;7.232;2023-03-01T11:21:25;10.13;;;6.00;;
12950;SDS011;6540;50.858;7.232;2023-03-01T11:23:53;6.03;;;4.50;;
12950;SDS011;6540;50.858;7.232;2023-03-01T11:26:18;8.30;;;5.27;;
12950;SDS011;6540;50.858;7.232;2023-03-01T11:28:44;8.33;;;5.67;;
12950;SDS011;6540;50.858;7.232;2023-03-01T11:31:16;6.90;;;5.03;;
12950;SDS011;6540;50.858;7.232;2023-03-01T11:33:53;8.70;;;5.23;;
12950;SDS011;6540;50.858;7.232;2023-03-01T11:36:30;7.97;;;4.63;;
12950;SDS011;6540;50.858;7.232;2023-03-01T11:38:57;8.13;;;3.93;;
12950;SDS011;6540;50.858;7.232;2023-03-01T11:41:30;8.07;;;4.77;;
12950;SDS011;6540;50.858;7.232;2023-03-01T11:44:10;9.10;;;5.20;;
12950;SDS011;6540;50.858;7.232;2023-03-01T12:14:38;7.97;;;5.00;;
12950;SDS011;6540;50.858;7.232;2023-03-01T12:19:46;6.47;;;4.20;;
12950;SDS011;6540;50.858;7.232;2023-03-01T12:22:32;5.37;;;3.97;;
12950;SDS011;6540;50.858;7.232;2023-03-01T12:33:14;7.73;;;4.73;;
12950;SDS011;6540;50.858;7.232;2023-03-01T12:38:50;9.87;;;5.13;;
12950;SDS011;6540;50.858;7.232;2023-03-01T12:52:57;4.30;;;2.40;;
12950;SDS011;6540;50.858;7.232;2023-03-01T12:55:39;7.23;;;4.67;;
12950;SDS011;6540;50.858;7.232;2023-03-01T12:58:13;6.03;;;4.77;;
12950;SDS011;6540;50.858;7.232;2023-03-01T13:02:01;6.87;;;4.60;;
12950;SDS011;6540;50.858;7.232;2023-03-01T13:04:15;4.87;;;4.30;;
12950;SDS011;6540;50.858;7.232;2023-03-01T13:06:47;8.00;;;5.00;;
12950;SDS011;6540;50.858;7.232;2023-03-01T13:09:54;8.33;;;5.80;;
12950;SDS011;6540;50.858;7.232;2023-03-01T13:17:47;5.97;;;4.40;;
12950;SDS011;6540;50.858;7.232;2023-03-01T13:20:17;7.37;;;4.47;;
12950;SDS011;6540;50.858;7.232;2023-03-01T13:22:45;5.60;;;4.37;;
12950;SDS011;6540;50.858;7.232;2023-03-01T13:25:19;5.33;;;3.80;;
12950;SDS011;6540;50.858;7.232;2023-03-01T13:27:45;8.70;;;4.97;;
12950;SDS011;6540;50.858;7.232;2023-03-01T13:35:52;5.50;;;4.60;;
12950;SDS011;6540;50.858;7.232;2023-03-01T13:41:02;9.20;;;4.83;;
12950;SDS011;6540;50.858;7.232;2023-03-01T13:43:34;6.03;;;4.20;;
12950;SDS011;6540;50.858;7.232;2023-03-01T13:46:02;5.90;;;4.77;;
12950;SDS011;6540;50.858;7.232;2023-03-01T13:48:35;6.47;;;4.53;;
12950;SDS011;6540;50.858;7.232;2023-03-01T13:51:03;5.23;;;4.07;;
12950;SDS011;6540;50.858;7.232;2023-03-01T13:53:36;5.67;;;4.03;;
12950;SDS011;6540;50.858;7.232;2023-03-01T13:56:17;7.17;;;4.00;;
12950;SDS011;6540;50.858;7.232;2023-03-01T14:01:37;5.70;;;3.63;;
12950;SDS011;6540;50.858;7.232;2023-03-01T14:04:03;5.33;;;4.17;;
12950;SDS011;6540;50.858;7.232;2023-03-01T14:06:43;4.87;;;3.67;;
12950;SDS011;6540;50.858;7.232;2023-03-01T14:19:35;5.17;;;3.50;;
12950;SDS011;6540;50.858;7.232;2023-03-01T14:25:03;3.60;;;3.00;;
12950;SDS011;6540;50.858;7.232;2023-03-01T14:27:38;6.73;;;3.80;;
12950;SDS011;6540;50.858;7.232;2023-03-01T14:30:14;4.73;;;2.73;;
12950;SDS011;6540;50.858;7.232;2023-03-01T14:32:58;2.53;;;2.33;;
12950;SDS011;6540;50.858;7.232;2023-03-01T14:35:33;3.77;;;2.97;;
12950;SDS011;6540;50.858;7.232;2023-03-01T14:38:00;5.47;;;4.13;;
12950;SDS011;6540;50.858;7.232;2023-03-01T14:40:28;7.43;;;4.33;;
12950;SDS011;6540;50.858;7.232;2023-03-01T14:42:57;6.40;;;4.50;;
12950;SDS011;6540;50.858;7.232;2023-03-01T14:45:25;4.07;;;3.20;;
12950;SDS011;6540;50.858;7.232;2023-03-01T14:47:53;2.20;;;1.90;;
12950;SDS011;6540;50.858;7.232;2023-03-01T14:50:34;4.80;;;3.77;;
12950;SDS011;6540;50.858;7.232;2023-03-01T14:53:05;4.13;;;3.63;;
12950;SDS011;6540;50.858;7.232;2023-03-01T14:55:34;5.20;;;3.70;;
12950;SDS011;6540;50.858;7.232;2023-03-01T14:58:03;8.97;;;4.17;;
12950;SDS011;6540;50.858;7.232;2023-03-01T15:00:30;6.93;;;3.87;;
12950;SDS011;6540;50.858;7.232;2023-03-01T15:03:00;5.17;;;3.87;;
12950;SDS011;6540;50.858;7.232;2023-03-01T15:05:34;5.27;;;3.90;;
12950;SDS011;6540;50.858;7.232;2023-03-01T15:08:02;4.17;;;3.73;;
12950;SDS011;6540;50.858;7.232;2023-03-01T15:10:29;5.77;;;4.00;;
12950;SDS011;6540;50.858;7.232;2023-03-01T15:13:10;4.60;;;3.50;;
12950;SDS011;6540;50.858;7.232;2023-03-01T15:15:45;7.57;;;3.43;;
12950;SDS011;6540;50.858;7.232;2023-03-01T15:18:14;5.57;;;3.03;;
12950;SDS011;6540;50.858;7.232;2023-03-01T15:20:40;4.10;;;3.70;;
12950;SDS011;6540;50.858;7.232;2023-03-01T15:23:05;7.13;;;3.77;;
12950;SDS011;6540;50.858;7.232;2023-03-01T15:25:31;3.70;;;3.40;;
12950;SDS011;6540;50.858;7.232;2023-03-01T15:27:58;2.90;;;2.23;;
12950;SDS011;6540;50.858;7.232;2023-03-01T15:30:32;5.67;;;3.70;;
12950;SDS011;6540;50.858;7.232;2023-03-01T15:35:54;4.80;;;4.00;;
12950;SDS011;6540;50.858;7.232;2023-03-01T15:38:50;4.17;;;3.70;;
12950;SDS011;6540;50.858;7.232;2023-03-01T15:43:50;4.83;;;3.27;;
12950;SDS011;6540;50.858;7.232;2023-03-01T15:48:59;6.10;;;4.20;;
12950;SDS011;6540;50.858;7.232;2023-03-01T15:51:29;6.13;;;3.77;;
12950;SDS011;6540;50.858;7.232;2023-03-01T15:53:58;6.40;;;3.83;;
12950;SDS011;6540;50.858;7.232;2023-03-01T15:56:25;6.47;;;3.60;;
12950;SDS011;6540;50.858;7.232;2023-03-01T15:58:51;4.90;;;3.67;;
12950;SDS011;6540;50.858;7.232;2023-03-01T16:01:16;4.70;;;4.13;;
12950;SDS011;6540;50.858;7.232;2023-03-01T16:03:42;4.97;;;3.40;;
12950;SDS011;6540;50.858;7.232;2023-03-01T16:06:09;3.10;;;2.53;;
12950;SDS011;6540;50.858;7.232;2023-03-01T16:08:36;6.17;;;4.10;;
12950;SDS011;6540;50.858;7.232;2023-03-01T16:11:02;6.17;;;3.50;;
12950;SDS011;6540;50.858;7.232;2023-03-01T16:13:30;4.60;;;3.90;;
12950;SDS011;6540;50.858;7.232;2023-03-01T16:15:56;5.53;;;3.90;;
12950;SDS011;6540;50.858;7.232;2023-03-01T16:18:22;4.37;;;2.90;;
12950;SDS011;6540;50.858;7.232;2023-03-01T16:20:48;6.40;;;4.07;;
12950;SDS011;6540;50.858;7.232;2023-03-01T16:23:14;6.23;;;3.83;;
12950;SDS011;6540;50.858;7.232;2023-03-01T16:25:40;4.57;;;3.80;;
12950;SDS011;6540;50.858;7.232;2023-03-01T16:28:05;4.67;;;4.10;;
12950;SDS011;6540;50.858;7.232;2023-03-01T16:30:33;5.67;;;3.90;;
12950;SDS011;6540;50.858;7.232;2023-03-01T16:33:00;8.23;;;4.27;;
12950;SDS011;6540;50.858;7.232;2023-03-01T16:35:26;6.40;;;4.07;;
12950;SDS011;6540;50.858;7.232;2023-03-01T16:37:51;6.23;;;3.80;;
12950;SDS011;6540;50.858;7.232;2023-03-01T16:42:49;6.90;;;4.80;;
12950;SDS011;6540;50.858;7.232;2023-03-01T16:45:15;5.90;;;3.90;;
12950;SDS011;6540;50.858;7.232;2023-03-01T16:47:41;6.10;;;4.57;;
12950;SDS011;6540;50.858;7.232;2023-03-01T16:50:06;3.63;;;3.30;;
12950;SDS011;6540;50.858;7.232;2023-03-01T16:52:33;7.90;;;4.60;;
12950;SDS011;6540;50.858;7.232;2023-03-01T16:54:58;4.33;;;3.90;;
12950;SDS011;6540;50.858;7.232;2023-03-01T16:57:24;6.90;;;3.73;;
12950;SDS011;6540;50.858;7.232;2023-03-01T16:59:52;5.27;;;3.40;;
12950;SDS011;6540;50.858;7.232;2023-03-01T17:02:20;6.23;;;4.07;;
12950;SDS011;6540;50.858;7.232;2023-03-01T17:04:53;7.00;;;4.03;;
12950;SDS011;6540;50.858;7.232;2023-03-01T17:07:19;4.90;;;3.73;;
12950;SDS011;6540;50.858;7.232;2023-03-01T17:09:45;4.80;;;4.20;;
12950;SDS011;6540;50.858;7.232;2023-03-01T17:12:14;7.10;;;3.70;;
12950;SDS011;6540;50.858;7.232;2023-03-01T17:14:40;6.23;;;4.17;;
12950;SDS011;6540;50.858;7.232;2023-03-01T17:17:07;4.90;;;3.40;;
12950;SDS011;6540;50.858;7.232;2023-03-01T17:19:33;5.93;;;4.47;;
12950;SDS011;6540;50.858;7.232;2023-03-01T17:22:01;5.17;;;3.73;;
12950;SDS011;6540;50.858;7.232;2023-03-01T17:24:27;6.00;;;4.30;;
12950;SDS011;6540;50.858;7.232;2023-03-01T17:26:54;4.63;;;4.13;;
12950;SDS011;6540;50.858;7.232;2023-03-01T17:29:19;3.90;;;3.47;;
12950;SDS011;6540;50.858;7.232;2023-03-01T17:31:45;4.87;;;3.80;;